sensor_id;sensor_type;location;lat;lon;timestamp;temperature;humidity
36790;DHT22;22740;52.182;8.780;2022-09-03T00:00:29;17.20;99.90
36790;DHT22;22740;52.182;8.780;2022-09-03T00:06:20;17.20;99.90
36790;DHT22;22740;52.182;8.780;2022-09-03T00:12:27;17.20;99.90
36790;DHT22;22740;52.182;8.780;2022-09-03T00:18:32;17.10;99.90
36790;DHT22;22740;52.182;8.780;2022-09-03T00:24:38;17.00;99.90
36790;DHT22;22740;52.182;8.780;2022-09-03T00:30:41;17.00;99.90
36790;DHT22;22740;52.182;8.780;2022-09-03T00:36:46;17.00;99.90
36790;DHT22;22740;52.182;8.780;2022-09-03T00:43:06;17.00;99.90
36790;DHT22;22740;52.182;8.780;2022-09-03T01:08:31;16.70;99.90
36790;DHT22;22740;52.182;8.780;2022-09-03T01:21:21;16.80;99.90
36790;DHT22;22740;52.182;8.780;2022-09-03T01:46:36;16.40;99.90
36790;DHT22;22740;52.182;8.780;2022-09-03T01:52:44;16.40;99.90
36790;DHT22;22740;52.182;8.780;2022-09-03T01:58:55;16.40;99.90
36790;DHT22;22740;52.182;8.780;2022-09-03T02:05:13;16.40;99.90
36790;DHT22;22740;52.182;8.780;2022-09-03T02:11:16;16.40;99.90
36790;DHT22;22740;52.182;8.780;2022-09-03T02:17:18;16.30;99.90
36790;DHT22;22740;52.182;8.780;2022-09-03T02:23:20;16.30;99.90
36790;DHT22;22740;52.182;8.780;2022-09-03T02:29:28;16.20;99.90
36790;DHT22;22740;52.182;8.780;2022-09-03T02:35:31;16.20;99.90
36790;DHT22;22740;52.182;8.780;2022-09-03T02:41:33;16.00;99.90
36790;DHT22;22740;52.182;8.780;2022-09-03T02:47:37;16.00;99.90
36790;DHT22;22740;52.182;8.780;2022-09-03T02:53:42;16.00;99.90
36790;DHT22;22740;52.182;8.780;2022-09-03T02:59:43;15.80;99.90
36790;DHT22;22740;52.182;8.780;2022-09-03T03:05:49;15.60;99.90
36790;DHT22;22740;52.182;8.780;2022-09-03T03:11:52;15.70;99.90
36790;DHT22;22740;52.182;8.780;2022-09-03T03:17:56;15.70;99.90
36790;DHT22;22740;52.182;8.780;2022-09-03T03:24:00;15.70;99.90
36790;DHT22;22740;52.182;8.780;2022-09-03T03:30:02;15.60;99.90
36790;DHT22;22740;52.182;8.780;2022-09-03T03:36:13;15.70;99.90
36790;DHT22;22740;52.182;8.780;2022-09-03T03:42:15;15.60;99.90
36790;DHT22;22740;52.182;8.780;2022-09-03T03:48:17;15.60;99.90
36790;DHT22;22740;52.182;8.780;2022-09-03T03:54:18;15.60;99.90
36790;DHT22;22740;52.182;8.780;2022-09-03T04:00:20;15.60;99.90
36790;DHT22;22740;52.182;8.780;2022-09-03T04:06:25;15.40;99.90
36790;DHT22;22740;52.182;8.780;2022-09-03T04:12:27;15.30;99.90
36790;DHT22;22740;52.182;8.780;2022-09-03T04:18:29;15.20;99.90
36790;DHT22;22740;52.182;8.780;2022-09-03T04:24:31;15.30;99.90
36790;DHT22;22740;52.182;8.780;2022-09-03T04:30:33;15.20;99.90
36790;DHT22;22740;52.182;8.780;2022-09-03T04:36:35;15.30;99.90
36790;DHT22;22740;52.182;8.780;2022-09-03T04:42:38;15.20;99.90
36790;DHT22;22740;52.182;8.780;2022-09-03T04:48:40;15.10;99.90
36790;DHT22;22740;52.182;8.780;2022-09-03T04:54:42;15.10;99.90
36790;DHT22;22740;52.182;8.780;2022-09-03T05:00:44;14.90;99.90
36790;DHT22;22740;52.182;8.780;2022-09-03T05:06:46;14.90;99.90
36790;DHT22;22740;52.182;8.780;2022-09-03T05:12:57;14.90;99.90
36790;DHT22;22740;52.182;8.780;2022-09-03T05:18:59;14.90;99.90
36790;DHT22;22740;52.182;8.780;2022-09-03T05:25:02;14.90;99.90
36790;DHT22;22740;52.182;8.780;2022-09-03T05:31:09;15.00;99.90
36790;DHT22;22740;52.182;8.780;2022-09-03T05:37:12;15.00;99.90
36790;DHT22;22740;52.182;8.780;2022-09-03T05:43:13;14.90;99.90
36790;DHT22;22740;52.182;8.780;2022-09-03T05:49:17;15.00;99.90
36790;DHT22;22740;52.182;8.780;2022-09-03T05:55:19;15.00;99.90
36790;DHT22;22740;52.182;8.780;2022-09-03T06:01:27;15.20;99.90
36790;DHT22;22740;52.182;8.780;2022-09-03T06:07:30;15.30;99.90
36790;DHT22;22740;52.182;8.780;2022-09-03T06:13:34;15.50;99.90
36790;DHT22;22740;52.182;8.780;2022-09-03T06:19:36;15.50;99.90
36790;DHT22;22740;52.182;8.780;2022-09-03T06:25:38;15.70;99.90
36790;DHT22;22740;52.182;8.780;2022-09-03T06:31:42;15.90;99.90
36790;DHT22;22740;52.182;8.780;2022-09-03T06:37:44;16.00;99.90
36790;DHT22;22740;52.182;8.780;2022-09-03T06:43:47;16.10;99.90
36790;DHT22;22740;52.182;8.780;2022-09-03T06:49:49;16.30;99.90
36790;DHT22;22740;52.182;8.780;2022-09-03T06:55:53;16.40;99.90
36790;DHT22;22740;52.182;8.780;2022-09-03T07:01:54;16.60;99.90
36790;DHT22;22740;52.182;8.780;2022-09-03T07:07:58;16.80;99.90
36790;DHT22;22740;52.182;8.780;2022-09-03T07:14:02;16.90;99.90
36790;DHT22;22740;52.182;8.780;2022-09-03T07:20:04;17.00;99.90
36790;DHT22;22740;52.182;8.780;2022-09-03T07:26:09;17.10;99.90
36790;DHT22;22740;52.182;8.780;2022-09-03T07:32:11;17.30;99.90
36790;DHT22;22740;52.182;8.780;2022-09-03T07:38:17;17.40;99.90
36790;DHT22;22740;52.182;8.780;2022-09-03T07:44:24;17.60;99.90
36790;DHT22;22740;52.182;8.780;2022-09-03T07:50:26;17.70;99.90
36790;DHT22;22740;52.182;8.780;2022-09-03T07:56:29;17.90;99.90
36790;DHT22;22740;52.182;8.780;2022-09-03T08:02:35;18.10;99.90
36790;DHT22;22740;52.182;8.780;2022-09-03T08:08:37;18.40;99.90
36790;DHT22;22740;52.182;8.780;2022-09-03T08:14:40;18.70;99.90
36790;DHT22;22740;52.182;8.780;2022-09-03T08:20:42;18.90;99.90
36790;DHT22;22740;52.182;8.780;2022-09-03T08:26:44;19.10;99.90
36790;DHT22;22740;52.182;8.780;2022-09-03T08:32:53;19.20;99.90
36790;DHT22;22740;52.182;8.780;2022-09-03T08:38:58;19.30;99.90
36790;DHT22;22740;52.182;8.780;2022-09-03T08:45:09;19.60;99.90
36790;DHT22;22740;52.182;8.780;2022-09-03T08:51:15;19.70;99.90
36790;DHT22;22740;52.182;8.780;2022-09-03T08:57:19;19.80;99.90
36790;DHT22;22740;52.182;8.780;2022-09-03T09:09:54;20.40;99.90
36790;DHT22;22740;52.182;8.780;2022-09-03T09:22:31;20.60;99.90
36790;DHT22;22740;52.182;8.780;2022-09-03T09:28:35;20.70;99.90
36790;DHT22;22740;52.182;8.780;2022-09-03T09:34:38;20.90;99.90
36790;DHT22;22740;52.182;8.780;2022-09-03T09:40:44;20.90;99.90
36790;DHT22;22740;52.182;8.780;2022-09-03T09:46:46;21.10;99.90
36790;DHT22;22740;52.182;8.780;2022-09-03T09:53:03;21.20;99.90
36790;DHT22;22740;52.182;8.780;2022-09-03T09:59:10;21.40;99.90
36790;DHT22;22740;52.182;8.780;2022-09-03T10:05:31;21.60;99.90
36790;DHT22;22740;52.182;8.780;2022-09-03T10:18:36;21.70;99.90
36790;DHT22;22740;52.182;8.780;2022-09-03T10:24:57;22.20;99.90
36790;DHT22;22740;52.182;8.780;2022-09-03T10:37:54;22.50;99.90
36790;DHT22;22740;52.182;8.780;2022-09-03T10:44:28;22.60;99.90
36790;DHT22;22740;52.182;8.780;2022-09-03T11:03:42;22.80;99.90
36790;DHT22;22740;52.182;8.780;2022-09-03T11:15:55;23.40;99.90
36790;DHT22;22740;52.182;8.780;2022-09-03T11:22:00;23.10;99.90
36790;DHT22;22740;52.182;8.780;2022-09-03T11:34:28;23.70;99.90
36790;DHT22;22740;52.182;8.780;2022-09-03T11:46:58;23.90;99.90
36790;DHT22;22740;52.182;8.780;2022-09-03T11:53:09;23.80;99.90
36790;DHT22;22740;52.182;8.780;2022-09-03T12:05:48;24.70;99.90
36790;DHT22;22740;52.182;8.780;2022-09-03T12:18:10;24.90;99.90
36790;DHT22;22740;52.182;8.780;2022-09-03T12:24:25;24.60;99.90
36790;DHT22;22740;52.182;8.780;2022-09-03T12:30:37;24.80;99.90
36790;DHT22;22740;52.182;8.780;2022-09-03T12:36:44;24.60;99.90
36790;DHT22;22740;52.182;8.780;2022-09-03T12:42:47;24.90;99.90
36790;DHT22;22740;52.182;8.780;2022-09-03T12:49:04;25.30;99.90
36790;DHT22;22740;52.182;8.780;2022-09-03T12:55:45;25.30;99.90
36790;DHT22;22740;52.182;8.780;2022-09-03T13:01:51;25.00;99.90
36790;DHT22;22740;52.182;8.780;2022-09-03T13:07:56;25.00;99.90
36790;DHT22;22740;52.182;8.780;2022-09-03T13:14:05;25.20;99.90
36790;DHT22;22740;52.182;8.780;2022-09-03T13:20:28;24.90;99.90
36790;DHT22;22740;52.182;8.780;2022-09-03T13:27:00;24.70;99.90
36790;DHT22;22740;52.182;8.780;2022-09-03T13:39:41;24.20;99.90
36790;DHT22;22740;52.182;8.780;2022-09-03T13:45:51;24.00;99.90
36790;DHT22;22740;52.182;8.780;2022-09-03T13:51:59;23.90;99.90
36790;DHT22;22740;52.182;8.780;2022-09-03T13:58:36;24.10;99.90
36790;DHT22;22740;52.182;8.780;2022-09-03T14:11:23;24.10;99.90
36790;DHT22;22740;52.182;8.780;2022-09-03T14:17:39;23.90;99.90
36790;DHT22;22740;52.182;8.780;2022-09-03T14:24:03;23.60;99.90
36790;DHT22;22740;52.182;8.780;2022-09-03T14:30:39;23.50;99.90
36790;DHT22;22740;52.182;8.780;2022-09-03T14:56:19;24.70;99.90
36790;DHT22;22740;52.182;8.780;2022-09-03T15:03:17;24.10;99.90
36790;DHT22;22740;52.182;8.780;2022-09-03T15:15:19;23.50;99.90
36790;DHT22;22740;52.182;8.780;2022-09-03T15:21:52;23.20;99.90
36790;DHT22;22740;52.182;8.780;2022-09-03T15:28:16;23.10;99.90
36790;DHT22;22740;52.182;8.780;2022-09-03T15:46:56;22.90;99.90
36790;DHT22;22740;52.182;8.780;2022-09-03T15:53:24;22.90;99.90
36790;DHT22;22740;52.182;8.780;2022-09-03T16:05:56;22.70;99.90
36790;DHT22;22740;52.182;8.780;2022-09-03T16:12:23;22.70;99.90
36790;DHT22;22740;52.182;8.780;2022-09-03T16:18:37;22.80;99.90
36790;DHT22;22740;52.182;8.780;2022-09-03T16:24:58;23.00;99.90
36790;DHT22;22740;52.182;8.780;2022-09-03T16:38:06;23.20;99.90
36790;DHT22;22740;52.182;8.780;2022-09-03T16:57:11;23.00;99.90
36790;DHT22;22740;52.182;8.780;2022-09-03T17:42:01;22.00;99.90
36790;DHT22;22740;52.182;8.780;2022-09-03T17:48:29;21.90;99.90
36790;DHT22;22740;52.182;8.780;2022-09-03T17:54:46;21.80;99.90
36790;DHT22;22740;52.182;8.780;2022-09-03T18:00:55;21.70;99.90
36790;DHT22;22740;52.182;8.780;2022-09-03T18:14:01;21.40;99.90
36790;DHT22;22740;52.182;8.780;2022-09-03T18:20:08;21.30;99.90
36790;DHT22;22740;52.182;8.780;2022-09-03T18:26:33;21.20;99.90
36790;DHT22;22740;52.182;8.780;2022-09-03T18:32:56;21.10;99.90
36790;DHT22;22740;52.182;8.780;2022-09-03T18:39:26;21.00;99.90
36790;DHT22;22740;52.182;8.780;2022-09-03T18:52:59;20.80;99.90
36790;DHT22;22740;52.182;8.780;2022-09-03T18:59:36;20.70;99.90
36790;DHT22;22740;52.182;8.780;2022-09-03T19:12:54;20.60;99.90
36790;DHT22;22740;52.182;8.780;2022-09-03T19:25:43;20.50;99.90
36790;DHT22;22740;52.182;8.780;2022-09-03T19:32:09;20.30;99.90
36790;DHT22;22740;52.182;8.780;2022-09-03T19:38:43;20.20;99.90
36790;DHT22;22740;52.182;8.780;2022-09-03T19:51:50;20.00;99.90
36790;DHT22;22740;52.182;8.780;2022-09-03T19:58:12;19.90;99.90
36790;DHT22;22740;52.182;8.780;2022-09-03T20:04:50;19.80;99.90
36790;DHT22;22740;52.182;8.780;2022-09-03T20:11:20;19.70;99.90
36790;DHT22;22740;52.182;8.780;2022-09-03T20:30:26;19.30;99.90
36790;DHT22;22740;52.182;8.780;2022-09-03T20:49:32;19.30;99.90
36790;DHT22;22740;52.182;8.780;2022-09-03T20:55:43;19.30;99.90
36790;DHT22;22740;52.182;8.780;2022-09-03T21:08:06;19.20;99.90
36790;DHT22;22740;52.182;8.780;2022-09-03T21:14:44;19.10;99.90
36790;DHT22;22740;52.182;8.780;2022-09-03T21:21:02;18.80;99.90
36790;DHT22;22740;52.182;8.780;2022-09-03T21:27:15;18.60;99.90
36790;DHT22;22740;52.182;8.780;2022-09-03T21:33:47;18.40;99.90
36790;DHT22;22740;52.182;8.780;2022-09-03T21:39:55;18.50;99.90
36790;DHT22;22740;52.182;8.780;2022-09-03T21:46:08;18.50;99.90
36790;DHT22;22740;52.182;8.780;2022-09-03T21:52:24;18.40;99.90
36790;DHT22;22740;52.182;8.780;2022-09-03T22:04:38;18.20;99.90
36790;DHT22;22740;52.182;8.780;2022-09-03T22:11:18;18.10;99.90
36790;DHT22;22740;52.182;8.780;2022-09-03T22:24:02;18.20;99.90
36790;DHT22;22740;52.182;8.780;2022-09-03T22:30:09;18.20;99.90
36790;DHT22;22740;52.182;8.780;2022-09-03T22:36:46;18.10;99.90
36790;DHT22;22740;52.182;8.780;2022-09-03T22:43:19;18.20;99.90
36790;DHT22;22740;52.182;8.780;2022-09-03T22:55:35;18.20;99.90
36790;DHT22;22740;52.182;8.780;2022-09-03T23:01:43;18.20;99.90
36790;DHT22;22740;52.182;8.780;2022-09-03T23:07:55;18.20;99.90
36790;DHT22;22740;52.182;8.780;2022-09-03T23:14:04;18.20;99.90
36790;DHT22;22740;52.182;8.780;2022-09-03T23:20:13;18.10;99.90
36790;DHT22;22740;52.182;8.780;2022-09-03T23:32:28;17.80;99.90
36790;DHT22;22740;52.182;8.780;2022-09-03T23:39:00;17.60;99.90
36790;DHT22;22740;52.182;8.780;2022-09-03T23:45:19;17.60;99.90
36790;DHT22;22740;52.182;8.780;2022-09-03T23:58:13;17.50;99.90
